Terminal Aerodrome Forecast
Issued by NWS Shreveport, LA

Home | Current Version | Previous Version | Text Only | Print | Product List | Glossary On
Versions: 1 2 3 4 5 6 7 8 9 10 11 12 13 14 15 16 17 18 19 20
000
FTUS44 KSHV 292320
TAFLFK
TAF
KLFK 292320Z 3000/3024 VRB03KT P6SM FEW050 SCT250
      TEMPO 3010/3013 5SM BR
     FM301400 22006KT P6SM SCT015 SCT140 SCT250
     FM301600 22007KT P6SM SCT035 SCT250
     FM302000 19006KT P6SM SCT045 SCT250=

USA.gov is the U.S. government's official web portal to all federal, state and local government web resources and services.